BEL3TX EBBR-EDDH
Flight info
| Callsign | BEL3TX |
|---|---|
| Flight time | 1h 21m |
| Altitude | 37000 |
| Route | NIK L191 VICOT N873 ANDIK M105 RIBSO RIBSO7A |
| Aircraft | A319/M-SDE3FGHIRWY/LB1 |
Departure
| Time | 2026-04-30 19:35 |
|---|---|
| Airport | Brussels Airport (EBBR) |
Arrival
| Time | 2026-04-30 20:56 |
|---|---|
| Airport | Hamburg Helmut Schmidt Airport (EDDH) |
| Time | Latitude | Longitude | Altitude | Speed | Heading |
|---|---|---|---|---|---|
| 2026-04-30 19:00 | 50.90427 | 4.48678 | 121 ft | 0 kts | 155° |
| 2026-04-30 19:18 | 50.90436 | 4.48672 | 117 ft | 4 kts | 155° |
| 2026-04-30 19:18 | 50.90460 | 4.48654 | 120 ft | 4 kts | 155° |
| 2026-04-30 19:19 | 50.90485 | 4.48636 | 116 ft | 4 kts | 148° |
| 2026-04-30 19:19 | 50.90504 | 4.48610 | 116 ft | 4 kts | 110° |
| 2026-04-30 19:19 | 50.90506 | 4.48594 | 116 ft | 0 kts | 65° |
| 2026-04-30 19:29 | 50.90551 | 4.48750 | 119 ft | 11 kts | 65° |
| 2026-04-30 19:29 | 50.90584 | 4.48864 | 117 ft | 12 kts | 65° |
| 2026-04-30 19:30 | 50.90592 | 4.49173 | 122 ft | 9 kts | 155° |
| 2026-04-30 19:30 | 50.90468 | 4.49261 | 121 ft | 12 kts | 155° |
| 2026-04-30 19:31 | 50.90339 | 4.49361 | 125 ft | 9 kts | 140° |
| 2026-04-30 19:31 | 50.90285 | 4.49406 | 124 ft | 9 kts | 187° |
| 2026-04-30 19:31 | 50.90165 | 4.49357 | 129 ft | 12 kts | 193° |
| 2026-04-30 19:32 | 50.90066 | 4.49320 | 129 ft | 18 kts | 193° |
| 2026-04-30 19:32 | 50.89935 | 4.49265 | 135 ft | 20 kts | 199° |
| 2026-04-30 19:32 | 50.89814 | 4.49212 | 143 ft | 16 kts | 194° |
| 2026-04-30 19:32 | 50.89720 | 4.49175 | 147 ft | 12 kts | 194° |
| 2026-04-30 19:33 | 50.89652 | 4.49148 | 152 ft | 8 kts | 193° |
| 2026-04-30 19:33 | 50.89606 | 4.49178 | 155 ft | 9 kts | 135° |
| 2026-04-30 19:33 | 50.89541 | 4.49177 | 158 ft | 11 kts | 194° |
| 2026-04-30 19:33 | 50.89455 | 4.49143 | 162 ft | 14 kts | 194° |
| 2026-04-30 19:34 | 50.89349 | 4.49101 | 166 ft | 16 kts | 194° |
| 2026-04-30 19:34 | 50.89248 | 4.49061 | 172 ft | 12 kts | 196° |
| 2026-04-30 19:34 | 50.89140 | 4.49052 | 176 ft | 8 kts | 99° |
| 2026-04-30 19:35 | 50.89181 | 4.49226 | 176 ft | 40 kts | 69° |
| 2026-04-30 19:35 | 50.89362 | 4.50028 | 177 ft | 111 kts | 70° |
| 2026-04-30 19:35 | 50.89684 | 4.51429 | 371 ft | 139 kts | 71° |
| 2026-04-30 19:35 | 50.90018 | 4.52825 | 908 ft | 140 kts | 69° |
| 2026-04-30 19:36 | 50.90454 | 4.54200 | 1372 ft | 139 kts | 71° |
| 2026-04-30 19:36 | 50.90902 | 4.55560 | 1822 ft | 144 kts | 63° |
| 2026-04-30 19:36 | 50.92586 | 4.56578 | 2663 ft | 179 kts | 357° |
| 2026-04-30 19:37 | 50.93704 | 4.55623 | 3176 ft | 190 kts | 316° |
| 2026-04-30 19:37 | 50.94637 | 4.54093 | 3567 ft | 202 kts | 314° |
| 2026-04-30 19:37 | 50.95666 | 4.52405 | 3772 ft | 224 kts | 314° |
| 2026-04-30 19:37 | 50.96775 | 4.50591 | 3911 ft | 247 kts | 314° |
| 2026-04-30 19:38 | 50.97978 | 4.48628 | 4219 ft | 271 kts | 314° |
| 2026-04-30 19:38 | 50.99363 | 4.46374 | 4766 ft | 289 kts | 314° |
| 2026-04-30 19:38 | 51.00782 | 4.44066 | 5657 ft | 293 kts | 314° |
| 2026-04-30 19:38 | 51.02183 | 4.41789 | 6503 ft | 296 kts | 314° |
| 2026-04-30 19:39 | 51.03635 | 4.39433 | 7132 ft | 300 kts | 315° |
| 2026-04-30 19:39 | 51.05100 | 4.37052 | 8038 ft | 301 kts | 314° |
| 2026-04-30 19:39 | 51.06569 | 4.34657 | 8908 ft | 304 kts | 314° |
| 2026-04-30 19:39 | 51.08054 | 4.32231 | 9779 ft | 307 kts | 314° |
| 2026-04-30 19:40 | 51.09554 | 4.29778 | 10522 ft | 315 kts | 315° |
| 2026-04-30 19:40 | 51.11140 | 4.27184 | 10780 ft | 338 kts | 315° |
| 2026-04-30 19:40 | 51.12836 | 4.24405 | 10989 ft | 362 kts | 314° |
| 2026-04-30 19:40 | 51.14607 | 4.21500 | 11375 ft | 375 kts | 314° |
| 2026-04-30 19:41 | 51.16468 | 4.18541 | 12027 ft | 380 kts | 319° |
| 2026-04-30 19:41 | 51.18573 | 4.15955 | 12725 ft | 383 kts | 324° |
| 2026-04-30 19:41 | 51.20731 | 4.13424 | 13423 ft | 387 kts | 324° |
| 2026-04-30 19:41 | 51.22906 | 4.10864 | 14113 ft | 390 kts | 324° |
| 2026-04-30 19:42 | 51.25157 | 4.08418 | 14715 ft | 393 kts | 332° |
| 2026-04-30 19:42 | 51.27653 | 4.06624 | 15302 ft | 395 kts | 343° |
| 2026-04-30 19:42 | 51.30332 | 4.05599 | 15885 ft | 397 kts | 354° |
| 2026-04-30 19:42 | 51.33094 | 4.05355 | 16473 ft | 399 kts | 1° |
| 2026-04-30 19:43 | 51.35876 | 4.05326 | 17065 ft | 402 kts | 3° |
| 2026-04-30 19:43 | 51.38632 | 4.06019 | 17639 ft | 401 kts | 20° |
| 2026-04-30 19:43 | 51.41152 | 4.07872 | 18225 ft | 401 kts | 31° |
| 2026-04-30 19:44 | 51.46110 | 4.12178 | 19308 ft | 407 kts | 31° |
| 2026-04-30 19:44 | 51.48606 | 4.14364 | 19852 ft | 410 kts | 31° |
| 2026-04-30 19:44 | 51.51116 | 4.16559 | 20360 ft | 412 kts | 31° |
| 2026-04-30 19:44 | 51.53598 | 4.18723 | 20869 ft | 414 kts | 31° |
| 2026-04-30 19:45 | 51.56143 | 4.20942 | 21370 ft | 417 kts | 31° |
| 2026-04-30 19:45 | 51.58735 | 4.23207 | 21868 ft | 419 kts | 31° |
| 2026-04-30 19:45 | 51.61263 | 4.25422 | 22351 ft | 422 kts | 31° |
| 2026-04-30 19:45 | 51.63852 | 4.27692 | 22816 ft | 424 kts | 31° |
| 2026-04-30 19:46 | 51.66448 | 4.29971 | 23265 ft | 427 kts | 31° |
| 2026-04-30 19:46 | 51.69060 | 4.32266 | 23732 ft | 429 kts | 31° |
| 2026-04-30 19:46 | 51.71688 | 4.34573 | 24133 ft | 431 kts | 31° |
| 2026-04-30 19:46 | 51.74334 | 4.36901 | 24495 ft | 434 kts | 31° |
| 2026-04-30 19:47 | 51.76986 | 4.39239 | 24868 ft | 436 kts | 31° |
| 2026-04-30 19:47 | 51.78786 | 4.40829 | 25115 ft | 437 kts | 31° |
| 2026-04-30 19:47 | 51.82331 | 4.43972 | 25577 ft | 440 kts | 31° |
| 2026-04-30 19:47 | 51.85029 | 4.46366 | 25937 ft | 442 kts | 31° |
| 2026-04-30 19:48 | 51.87727 | 4.48762 | 26290 ft | 444 kts | 31° |
| 2026-04-30 19:48 | 51.90447 | 4.51181 | 26631 ft | 447 kts | 31° |
| 2026-04-30 19:48 | 51.93177 | 4.53609 | 26973 ft | 449 kts | 31° |
| 2026-04-30 19:48 | 51.95919 | 4.56051 | 27301 ft | 451 kts | 31° |
| 2026-04-30 19:49 | 51.98674 | 4.58513 | 27614 ft | 453 kts | 31° |
| 2026-04-30 19:49 | 52.04227 | 4.63480 | 28255 ft | 457 kts | 31° |
| 2026-04-30 19:49 | 52.07021 | 4.65981 | 28552 ft | 460 kts | 31° |
| 2026-04-30 19:50 | 52.09824 | 4.68498 | 28868 ft | 461 kts | 31° |
| 2026-04-30 19:50 | 52.12648 | 4.71033 | 29159 ft | 464 kts | 31° |
| 2026-04-30 19:50 | 52.15474 | 4.73572 | 29455 ft | 465 kts | 31° |
| 2026-04-30 19:50 | 52.18314 | 4.76129 | 29835 ft | 465 kts | 31° |
| 2026-04-30 19:51 | 52.21137 | 4.78679 | 30265 ft | 464 kts | 30° |
| 2026-04-30 19:51 | 52.23957 | 4.81229 | 30640 ft | 463 kts | 31° |
| 2026-04-30 19:51 | 52.26775 | 4.83779 | 31016 ft | 462 kts | 30° |
| 2026-04-30 19:51 | 52.29572 | 4.86312 | 31379 ft | 461 kts | 31° |
| 2026-04-30 19:52 | 52.32377 | 4.88857 | 31754 ft | 459 kts | 30° |
| 2026-04-30 19:52 | 52.35166 | 4.91388 | 32128 ft | 458 kts | 31° |
| 2026-04-30 19:52 | 52.37951 | 4.93921 | 32517 ft | 457 kts | 30° |
| 2026-04-30 19:52 | 52.40726 | 4.96451 | 32919 ft | 455 kts | 31° |
| 2026-04-30 19:53 | 52.43490 | 4.98974 | 33383 ft | 452 kts | 30° |
| 2026-04-30 19:53 | 52.46223 | 5.01472 | 33815 ft | 449 kts | 31° |
| 2026-04-30 19:53 | 52.48949 | 5.03968 | 34220 ft | 448 kts | 30° |
| 2026-04-30 19:53 | 52.51629 | 5.06427 | 34589 ft | 446 kts | 31° |
| 2026-04-30 19:54 | 52.54371 | 5.08949 | 34915 ft | 446 kts | 30° |
| 2026-04-30 19:54 | 52.57071 | 5.11436 | 35242 ft | 445 kts | 31° |
| 2026-04-30 19:54 | 52.59773 | 5.13929 | 35532 ft | 445 kts | 30° |
| 2026-04-30 19:54 | 52.62443 | 5.16395 | 35826 ft | 444 kts | 31° |
| 2026-04-30 19:55 | 52.65019 | 5.18778 | 36086 ft | 444 kts | 31° |
| 2026-04-30 19:55 | 52.67762 | 5.21326 | 36384 ft | 444 kts | 30° |
| 2026-04-30 19:55 | 52.70342 | 5.24098 | 36634 ft | 442 kts | 40° |
| 2026-04-30 19:55 | 52.72571 | 5.27507 | 36895 ft | 439 kts | 49° |
| 2026-04-30 19:56 | 52.74426 | 5.31517 | 37118 ft | 438 kts | 59° |
| 2026-04-30 19:56 | 52.75844 | 5.35958 | 37304 ft | 436 kts | 69° |
| 2026-04-30 19:56 | 52.77913 | 5.45395 | 37332 ft | 437 kts | 71° |
| 2026-04-30 19:57 | 52.79945 | 5.54863 | 37353 ft | 436 kts | 71° |
| 2026-04-30 19:57 | 52.81968 | 5.64310 | 37338 ft | 435 kts | 71° |
| 2026-04-30 19:58 | 52.83974 | 5.73735 | 37356 ft | 435 kts | 71° |
| 2026-04-30 19:58 | 52.85963 | 5.83122 | 37356 ft | 435 kts | 71° |
| 2026-04-30 19:59 | 52.87956 | 5.92590 | 37339 ft | 436 kts | 71° |
| 2026-04-30 20:00 | 52.90839 | 6.06334 | 37360 ft | 436 kts | 71° |
| 2026-04-30 20:00 | 52.91100 | 6.07591 | 37338 ft | 437 kts | 71° |
| 2026-04-30 20:01 | 52.93121 | 6.17340 | 37349 ft | 436 kts | 71° |
| 2026-04-30 20:01 | 52.95102 | 6.26875 | 37363 ft | 437 kts | 71° |
| 2026-04-30 20:02 | 52.98055 | 6.41200 | 37360 ft | 437 kts | 71° |
| 2026-04-30 20:03 | 53.00987 | 6.55523 | 37384 ft | 437 kts | 71° |
| 2026-04-30 20:03 | 53.02935 | 6.65079 | 37416 ft | 437 kts | 71° |
| 2026-04-30 20:04 | 53.04855 | 6.74605 | 37401 ft | 437 kts | 71° |
| 2026-04-30 20:05 | 53.07748 | 6.89006 | 37394 ft | 437 kts | 71° |
| 2026-04-30 20:05 | 53.10608 | 7.03317 | 37393 ft | 438 kts | 71° |
| 2026-04-30 20:06 | 53.11590 | 7.08263 | 37397 ft | 438 kts | 71° |
| 2026-04-30 20:06 | 53.12668 | 7.13702 | 37403 ft | 438 kts | 71° |
| 2026-04-30 20:07 | 53.14576 | 7.23363 | 37411 ft | 439 kts | 71° |
| 2026-04-30 20:08 | 53.17402 | 7.37804 | 37424 ft | 427 kts | 71° |
| 2026-04-30 20:08 | 53.18303 | 7.42453 | 37418 ft | 411 kts | 71° |
| 2026-04-30 20:08 | 53.19164 | 7.46899 | 37419 ft | 401 kts | 71° |
| 2026-04-30 20:09 | 53.20857 | 7.55700 | 36894 ft | 396 kts | 71° |
| 2026-04-30 20:09 | 53.21700 | 7.60064 | 36337 ft | 396 kts | 71° |
| 2026-04-30 20:09 | 53.23401 | 7.68804 | 35311 ft | 394 kts | 71° |
| 2026-04-30 20:10 | 53.25070 | 7.77465 | 34271 ft | 394 kts | 71° |
| 2026-04-30 20:10 | 53.25901 | 7.81832 | 33739 ft | 392 kts | 71° |
| 2026-04-30 20:10 | 53.26710 | 7.86104 | 33600 ft | 381 kts | 71° |
| 2026-04-30 20:11 | 53.28283 | 7.94402 | 32963 ft | 371 kts | 71° |
| 2026-04-30 20:11 | 53.29059 | 7.98492 | 32586 ft | 368 kts | 71° |
| 2026-04-30 20:11 | 53.29829 | 8.02561 | 32207 ft | 366 kts | 71° |
| 2026-04-30 20:12 | 53.31344 | 8.10619 | 31452 ft | 361 kts | 71° |
| 2026-04-30 20:12 | 53.32091 | 8.14603 | 31076 ft | 358 kts | 71° |
| 2026-04-30 20:12 | 53.32850 | 8.18564 | 30710 ft | 356 kts | 70° |
| 2026-04-30 20:13 | 53.33686 | 8.22438 | 30299 ft | 353 kts | 68° |
| 2026-04-30 20:13 | 53.34578 | 8.26265 | 29896 ft | 350 kts | 66° |
| 2026-04-30 20:13 | 53.35468 | 8.29964 | 29504 ft | 346 kts | 66° |
| 2026-04-30 20:13 | 53.36373 | 8.33734 | 29085 ft | 343 kts | 66° |
| 2026-04-30 20:14 | 53.37250 | 8.37447 | 28659 ft | 340 kts | 67° |
| 2026-04-30 20:14 | 53.38092 | 8.41070 | 28248 ft | 338 kts | 67° |
| 2026-04-30 20:14 | 53.38935 | 8.44738 | 27840 ft | 335 kts | 67° |
| 2026-04-30 20:14 | 53.39784 | 8.48346 | 27430 ft | 332 kts | 63° |
| 2026-04-30 20:15 | 53.41046 | 8.51530 | 27026 ft | 327 kts | 50° |
| 2026-04-30 20:15 | 53.42490 | 8.54472 | 26610 ft | 325 kts | 50° |
| 2026-04-30 20:15 | 53.43931 | 8.57394 | 26205 ft | 323 kts | 49° |
| 2026-04-30 20:15 | 53.45369 | 8.60294 | 25799 ft | 322 kts | 49° |
| 2026-04-30 20:16 | 53.46796 | 8.63170 | 25406 ft | 320 kts | 49° |
| 2026-04-30 20:16 | 53.48216 | 8.66038 | 25027 ft | 318 kts | 50° |
| 2026-04-30 20:16 | 53.49623 | 8.68887 | 24655 ft | 316 kts | 50° |
| 2026-04-30 20:16 | 53.51014 | 8.71711 | 24291 ft | 314 kts | 50° |
| 2026-04-30 20:17 | 53.52397 | 8.74526 | 23920 ft | 312 kts | 50° |
| 2026-04-30 20:17 | 53.53779 | 8.77342 | 23504 ft | 310 kts | 50° |
| 2026-04-30 20:17 | 53.55150 | 8.80139 | 23103 ft | 308 kts | 50° |
| 2026-04-30 20:17 | 53.56496 | 8.82894 | 22907 ft | 299 kts | 50° |
| 2026-04-30 20:18 | 53.57776 | 8.85519 | 22783 ft | 290 kts | 50° |
| 2026-04-30 20:18 | 53.59032 | 8.88092 | 22612 ft | 281 kts | 50° |
| 2026-04-30 20:18 | 53.60265 | 8.90616 | 22324 ft | 277 kts | 50° |
| 2026-04-30 20:18 | 53.61485 | 8.93112 | 21997 ft | 275 kts | 50° |
| 2026-04-30 20:19 | 53.62697 | 8.95594 | 21664 ft | 273 kts | 51° |
| 2026-04-30 20:19 | 53.63501 | 8.97242 | 21438 ft | 272 kts | 51° |
| 2026-04-30 20:19 | 53.65097 | 9.00523 | 21002 ft | 270 kts | 51° |
| 2026-04-30 20:19 | 53.66288 | 9.02974 | 20671 ft | 269 kts | 51° |
| 2026-04-30 20:20 | 53.67476 | 9.05418 | 20349 ft | 268 kts | 51° |
| 2026-04-30 20:20 | 53.68639 | 9.07809 | 20043 ft | 267 kts | 51° |
| 2026-04-30 20:20 | 53.69822 | 9.10246 | 19738 ft | 265 kts | 51° |
| 2026-04-30 20:20 | 53.70964 | 9.12604 | 19450 ft | 264 kts | 51° |
| 2026-04-30 20:21 | 53.72121 | 9.14998 | 19153 ft | 263 kts | 51° |
| 2026-04-30 20:21 | 53.73272 | 9.17378 | 18879 ft | 261 kts | 51° |
| 2026-04-30 20:21 | 53.74441 | 9.19797 | 18589 ft | 260 kts | 52° |
| 2026-04-30 20:21 | 53.75562 | 9.22124 | 18254 ft | 259 kts | 52° |
| 2026-04-30 20:22 | 53.76697 | 9.24479 | 17938 ft | 258 kts | 52° |
| 2026-04-30 20:22 | 53.77825 | 9.26824 | 17630 ft | 256 kts | 52° |
| 2026-04-30 20:22 | 53.78948 | 9.29161 | 17347 ft | 255 kts | 52° |
| 2026-04-30 20:22 | 53.80056 | 9.31468 | 17085 ft | 252 kts | 52° |
| 2026-04-30 20:23 | 53.81163 | 9.33778 | 16803 ft | 251 kts | 52° |
| 2026-04-30 20:23 | 53.82236 | 9.36092 | 16518 ft | 250 kts | 54° |
| 2026-04-30 20:23 | 53.82821 | 9.37759 | 16325 ft | 247 kts | 70° |
| 2026-04-30 20:23 | 53.83069 | 9.40592 | 16041 ft | 246 kts | 96° |
| 2026-04-30 20:24 | 53.82496 | 9.43319 | 15745 ft | 249 kts | 123° |
| 2026-04-30 20:24 | 53.81187 | 9.45255 | 15438 ft | 258 kts | 151° |
| 2026-04-30 20:24 | 53.79404 | 9.45808 | 15124 ft | 268 kts | 184° |
| 2026-04-30 20:24 | 53.77645 | 9.44723 | 14823 ft | 275 kts | 207° |
| 2026-04-30 20:25 | 53.74337 | 9.41420 | 14421 ft | 275 kts | 207° |
| 2026-04-30 20:25 | 53.72698 | 9.39766 | 14431 ft | 274 kts | 207° |
| 2026-04-30 20:26 | 53.70007 | 9.35359 | 14425 ft | 281 kts | 252° |
| 2026-04-30 20:26 | 53.70723 | 9.29331 | 14431 ft | 273 kts | 317° |
| 2026-04-30 20:26 | 53.72263 | 9.27588 | 14433 ft | 263 kts | 348° |
| 2026-04-30 20:27 | 53.75630 | 9.28413 | 14425 ft | 247 kts | 33° |
| 2026-04-30 20:27 | 53.78602 | 9.31322 | 13866 ft | 246 kts | 34° |
| 2026-04-30 20:28 | 53.81527 | 9.34282 | 13420 ft | 243 kts | 39° |
| 2026-04-30 20:28 | 53.82964 | 9.39093 | 13434 ft | 237 kts | 92° |
| 2026-04-30 20:29 | 53.81402 | 9.43829 | 13432 ft | 246 kts | 145° |
| 2026-04-30 20:30 | 53.76378 | 9.42544 | 13437 ft | 271 kts | 207° |
| 2026-04-30 20:30 | 53.71547 | 9.37662 | 13429 ft | 271 kts | 217° |
| 2026-04-30 20:31 | 53.71320 | 9.29124 | 13429 ft | 268 kts | 321° |
| 2026-04-30 20:32 | 53.76154 | 9.28923 | 13064 ft | 242 kts | 34° |
| 2026-04-30 20:32 | 53.79042 | 9.31791 | 12489 ft | 241 kts | 34° |
| 2026-04-30 20:33 | 53.80490 | 9.33228 | 12423 ft | 241 kts | 34° |
| 2026-04-30 20:33 | 53.82765 | 9.37106 | 12429 ft | 235 kts | 74° |
| 2026-04-30 20:33 | 53.82893 | 9.39829 | 12430 ft | 235 kts | 100° |
| 2026-04-30 20:34 | 53.80936 | 9.44104 | 12441 ft | 245 kts | 154° |
| 2026-04-30 20:34 | 53.77536 | 9.43475 | 12440 ft | 265 kts | 209° |
| 2026-04-30 20:35 | 53.75961 | 9.41866 | 12433 ft | 265 kts | 208° |
| 2026-04-30 20:35 | 53.74380 | 9.40293 | 12440 ft | 264 kts | 207° |
| 2026-04-30 20:35 | 53.71297 | 9.36945 | 12423 ft | 267 kts | 227° |
| 2026-04-30 20:36 | 53.70486 | 9.34146 | 12433 ft | 270 kts | 262° |
| 2026-04-30 20:36 | 53.70691 | 9.31035 | 12433 ft | 268 kts | 296° |
| 2026-04-30 20:36 | 53.73437 | 9.27565 | 12431 ft | 251 kts | 0° |
| 2026-04-30 20:37 | 53.75138 | 9.28010 | 12436 ft | 242 kts | 29° |
| 2026-04-30 20:37 | 53.76591 | 9.29360 | 12432 ft | 242 kts | 34° |
| 2026-04-30 20:37 | 53.78047 | 9.30799 | 12435 ft | 242 kts | 34° |
| 2026-04-30 20:37 | 53.79499 | 9.32247 | 12429 ft | 243 kts | 34° |
| 2026-04-30 20:38 | 53.80957 | 9.33696 | 12428 ft | 243 kts | 34° |
| 2026-04-30 20:38 | 53.82246 | 9.35465 | 12427 ft | 237 kts | 56° |
| 2026-04-30 20:38 | 53.82897 | 9.37984 | 12433 ft | 234 kts | 82° |
| 2026-04-30 20:39 | 53.81912 | 9.43051 | 12426 ft | 240 kts | 135° |
| 2026-04-30 20:39 | 53.80452 | 9.44447 | 12443 ft | 249 kts | 162° |
| 2026-04-30 20:39 | 53.78697 | 9.44541 | 12287 ft | 256 kts | 184° |
| 2026-04-30 20:40 | 53.75471 | 9.45862 | 11630 ft | 238 kts | 131° |
| 2026-04-30 20:40 | 53.74538 | 9.48120 | 11236 ft | 237 kts | 116° |
| 2026-04-30 20:40 | 53.73759 | 9.50618 | 10786 ft | 242 kts | 114° |
| 2026-04-30 20:41 | 53.72236 | 9.55723 | 10134 ft | 242 kts | 114° |
| 2026-04-30 20:41 | 53.71491 | 9.58244 | 9804 ft | 241 kts | 114° |
| 2026-04-30 20:41 | 53.70757 | 9.60734 | 9508 ft | 238 kts | 114° |
| 2026-04-30 20:41 | 53.70020 | 9.63240 | 9438 ft | 238 kts | 114° |
| 2026-04-30 20:42 | 53.69285 | 9.65742 | 9449 ft | 239 kts | 114° |
| 2026-04-30 20:42 | 53.68543 | 9.68269 | 9456 ft | 239 kts | 114° |
| 2026-04-30 20:42 | 53.66143 | 9.71998 | 9455 ft | 248 kts | 162° |
| 2026-04-30 20:43 | 53.64461 | 9.72435 | 9455 ft | 243 kts | 174° |
| 2026-04-30 20:43 | 53.62811 | 9.71832 | 9436 ft | 248 kts | 205° |
| 2026-04-30 20:43 | 53.61350 | 9.70261 | 9126 ft | 249 kts | 213° |
| 2026-04-30 20:44 | 53.58517 | 9.66713 | 8215 ft | 257 kts | 214° |
| 2026-04-30 20:44 | 53.57093 | 9.64884 | 7866 ft | 256 kts | 214° |
| 2026-04-30 20:44 | 53.54588 | 9.60652 | 7186 ft | 258 kts | 233° |
| 2026-04-30 20:45 | 53.52603 | 9.55644 | 6514 ft | 255 kts | 234° |
| 2026-04-30 20:45 | 53.51648 | 9.53203 | 6184 ft | 253 kts | 234° |
| 2026-04-30 20:45 | 53.50692 | 9.50757 | 5871 ft | 251 kts | 234° |
| 2026-04-30 20:46 | 53.47854 | 9.43500 | 4912 ft | 244 kts | 234° |
| 2026-04-30 20:46 | 53.46924 | 9.41137 | 4588 ft | 241 kts | 234° |
| 2026-04-30 20:47 | 53.45075 | 9.36495 | 4021 ft | 235 kts | 232° |
| 2026-04-30 20:47 | 53.43856 | 9.34789 | 3980 ft | 230 kts | 200° |
| 2026-04-30 20:48 | 53.40936 | 9.35660 | 3981 ft | 222 kts | 133° |
| 2026-04-30 20:48 | 53.40218 | 9.37902 | 3981 ft | 222 kts | 99° |
| 2026-04-30 20:48 | 53.40209 | 9.40508 | 3980 ft | 224 kts | 86° |
| 2026-04-30 20:48 | 53.40360 | 9.43066 | 3980 ft | 224 kts | 84° |
| 2026-04-30 20:49 | 53.40536 | 9.45675 | 3980 ft | 224 kts | 84° |
| 2026-04-30 20:49 | 53.40715 | 9.48273 | 3981 ft | 225 kts | 84° |
| 2026-04-30 20:49 | 53.40899 | 9.50874 | 3981 ft | 225 kts | 84° |
| 2026-04-30 20:50 | 53.41649 | 9.55907 | 3980 ft | 227 kts | 56° |
| 2026-04-30 20:50 | 53.42650 | 9.57964 | 3981 ft | 229 kts | 51° |
| 2026-04-30 20:50 | 53.43683 | 9.59997 | 3984 ft | 229 kts | 51° |
| 2026-04-30 20:50 | 53.44708 | 9.62030 | 4006 ft | 228 kts | 52° |
| 2026-04-30 20:51 | 53.45729 | 9.64066 | 4006 ft | 228 kts | 52° |
| 2026-04-30 20:51 | 53.47776 | 9.68151 | 4008 ft | 226 kts | 52° |
| 2026-04-30 20:51 | 53.48757 | 9.70110 | 3986 ft | 211 kts | 52° |
| 2026-04-30 20:52 | 53.49673 | 9.71942 | 3809 ft | 206 kts | 52° |
| 2026-04-30 20:52 | 53.50601 | 9.73799 | 3552 ft | 205 kts | 52° |
| 2026-04-30 20:52 | 53.52416 | 9.77435 | 3011 ft | 199 kts | 52° |
| 2026-04-30 20:53 | 53.53284 | 9.79176 | 2739 ft | 193 kts | 52° |
| 2026-04-30 20:53 | 53.54134 | 9.80881 | 2485 ft | 189 kts | 52° |
| 2026-04-30 20:53 | 53.54970 | 9.82560 | 2235 ft | 185 kts | 52° |
| 2026-04-30 20:54 | 53.56600 | 9.85838 | 1739 ft | 181 kts | 52° |
| 2026-04-30 20:54 | 53.57388 | 9.87423 | 1486 ft | 171 kts | 52° |
| 2026-04-30 20:54 | 53.58115 | 9.88885 | 1293 ft | 154 kts | 53° |
| 2026-04-30 20:55 | 53.59372 | 9.91393 | 861 ft | 133 kts | 53° |
| 2026-04-30 20:55 | 53.59964 | 9.92602 | 677 ft | 131 kts | 52° |
| 2026-04-30 20:55 | 53.60541 | 9.93773 | 513 ft | 129 kts | 51° |
| 2026-04-30 20:56 | 53.61691 | 9.96101 | 173 ft | 128 kts | 51° |
| 2026-04-30 20:56 | 53.62254 | 9.97239 | 44 ft | 125 kts | 52° |
| 2026-04-30 20:56 | 53.62928 | 9.98605 | 45 ft | 28 kts | 50° |
| 2026-04-30 20:57 | 53.63046 | 9.98844 | 46 ft | 26 kts | 52° |
| 2026-04-30 20:57 | 53.63088 | 9.99025 | 45 ft | 13 kts | 77° |
| 2026-04-30 20:57 | 53.63090 | 9.99168 | 47 ft | 10 kts | 95° |
| 2026-04-30 20:58 | 53.63085 | 9.99272 | 47 ft | 4 kts | 95° |
| 2026-04-30 20:58 | 53.63084 | 9.99282 | 47 ft | 1 kts | 94° |
| 2026-04-30 20:58 | 53.63084 | 9.99294 | 47 ft | 2 kts | 94° |
| 2026-04-30 20:58 | 53.63084 | 9.99340 | 47 ft | 7 kts | 83° |
| 2026-04-30 20:59 | 53.63091 | 9.99377 | 47 ft | 0 kts | 66° |
| 2026-04-30 21:01 | 53.63094 | 9.99389 | 47 ft | 4 kts | 66° |
| 2026-04-30 21:02 | 53.63120 | 9.99457 | 46 ft | 10 kts | 54° |
| 2026-04-30 21:02 | 53.63163 | 9.99553 | 46 ft | 11 kts | 51° |
| 2026-04-30 21:02 | 53.63205 | 9.99636 | 48 ft | 8 kts | 50° |
| 2026-04-30 21:02 | 53.63242 | 9.99708 | 48 ft | 9 kts | 47° |
| 2026-04-30 21:03 | 53.63286 | 9.99781 | 48 ft | 9 kts | 46° |
| 2026-04-30 21:03 | 53.63332 | 9.99868 | 48 ft | 10 kts | 50° |
| 2026-04-30 21:03 | 53.63380 | 9.99967 | 48 ft | 11 kts | 50° |
| 2026-04-30 21:03 | 53.63430 | 10.00078 | 48 ft | 12 kts | 68° |
| 2026-04-30 21:04 | 53.63393 | 10.00186 | 48 ft | 11 kts | 156° |
| 2026-04-30 21:04 | 53.63314 | 10.00201 | 48 ft | 12 kts | 175° |
| 2026-04-30 21:04 | 53.63144 | 10.00221 | 49 ft | 9 kts | 176° |
| 2026-04-30 21:05 | 53.63084 | 10.00246 | 47 ft | 9 kts | 134° |
| 2026-04-30 21:05 | 53.63093 | 10.00297 | 48 ft | 4 kts | 17° |
| 2026-04-30 21:05 | 53.63112 | 10.00330 | 48 ft | 3 kts | 80° |
| 2026-04-30 21:05 | 53.63112 | 10.00373 | 48 ft | 3 kts | 87° |
| 2026-04-30 21:06 | 53.63112 | 10.00378 | 48 ft | 0 kts | 87° |
| 2026-04-30 21:06 | 53.63112 | 10.00377 | 48 ft | 0 kts | 87° |
| 2026-04-30 21:08 | 53.63112 | 10.00378 | 48 ft | 0 kts | 87° |